Terminal Aerodrome Forecast
Issued by NWS Sterling, VA

Current Version | Previous Version | Text Only | Print | Product List | Glossary Off
Versions: 1 2 3 4 5 6 7 8 9 10 11 12 13 14 15 16 17 18 19 20 21

000
FTUS41 KLWX 281447 AAA
TAFDCA
TAF AMD
KDCA 281447Z 2815/2912 08006G15KT P6SM -RA SCT013 BKN024 OVC070
     FM282000 11008KT 6SM SHRA BR VCTS BKN020CB
     FM290300 11008KT 3SM SHRA BR OVC008=

USA.gov is the U.S. government's official web portal to all federal, state and local government web resources and services.